createdAt,value
2018-09-28T00:01:49.513Z,6.10
2018-09-28T00:04:16.998Z,6.10
2018-09-28T00:06:43.781Z,6.00
2018-09-28T00:09:11.453Z,6.10
2018-09-28T00:11:38.919Z,6.10
2018-09-28T00:14:05.724Z,6.10
2018-09-28T00:16:32.552Z,6.20
2018-09-28T00:18:59.269Z,6.10
2018-09-28T00:21:26.840Z,6.20
2018-09-28T00:23:53.601Z,6.10
2018-09-28T00:26:20.596Z,6.10
2018-09-28T00:28:48.049Z,6.20
2018-09-28T00:31:15.537Z,6.20
2018-09-28T00:33:42.349Z,6.20
2018-09-28T00:36:09.828Z,6.20
2018-09-28T00:38:36.663Z,6.20
2018-09-28T00:41:03.398Z,6.20
2018-09-28T00:43:30.846Z,6.10
2018-09-28T00:45:58.351Z,6.10
2018-09-28T00:48:25.068Z,6.10
2018-09-28T00:50:51.837Z,6.20
2018-09-28T00:53:18.715Z,6.20
2018-09-28T00:55:45.417Z,6.20
2018-09-28T00:58:12.222Z,6.20
2018-09-28T01:00:54.767Z,6.30
2018-09-28T01:06:03.146Z,6.30
2018-09-28T01:08:29.821Z,6.20
2018-09-28T01:10:56.534Z,6.10
2018-09-28T01:13:23.346Z,6.10
2018-09-28T01:15:50.040Z,6.10
2018-09-28T01:18:16.747Z,6.10
2018-09-28T01:20:44.253Z,6.00
2018-09-28T01:23:10.943Z,6.00
2018-09-28T01:25:38.395Z,6.00
2018-09-28T01:28:05.148Z,6.00
2018-09-28T01:30:31.876Z,6.00
2018-09-28T01:32:59.329Z,6.10
2018-09-28T01:35:26.790Z,6.00
2018-09-28T01:37:54.266Z,6.00
2018-09-28T01:40:20.961Z,6.00
2018-09-28T01:42:47.716Z,6.00
2018-09-28T01:45:14.423Z,6.00
2018-09-28T01:47:41.141Z,6.00
2018-09-28T01:50:07.886Z,6.00
2018-09-28T01:52:34.586Z,5.90
2018-09-28T01:55:02.089Z,5.90
2018-09-28T01:57:28.844Z,5.90
2018-09-28T01:59:55.644Z,5.80
2018-09-28T02:02:23.076Z,5.90
2018-09-28T02:04:49.789Z,5.90
2018-09-28T02:07:16.512Z,5.80
2018-09-28T02:09:43.267Z,5.80
2018-09-28T02:12:10.015Z,5.80
2018-09-28T02:14:36.840Z,5.80
2018-09-28T02:17:03.569Z,5.80
2018-09-28T02:19:30.415Z,5.80
2018-09-28T02:21:57.147Z,5.70
2018-09-28T02:24:23.884Z,5.70
2018-09-28T02:26:50.651Z,5.70
2018-09-28T02:29:18.124Z,5.70
2018-09-28T02:31:44.853Z,5.70
2018-09-28T02:34:11.664Z,5.70
2018-09-28T02:36:39.493Z,5.70
2018-09-28T02:39:07.127Z,5.70
2018-09-28T02:41:40.957Z,5.70
2018-09-28T02:44:08.413Z,5.70
2018-09-28T02:46:35.138Z,5.60
2018-09-28T02:49:01.854Z,5.60
2018-09-28T02:51:28.570Z,5.60
2018-09-28T02:53:55.383Z,5.50
2018-09-28T02:56:22.870Z,5.60
2018-09-28T02:58:49.575Z,5.60
2018-09-28T03:01:16.313Z,5.70
2018-09-28T03:03:43.209Z,5.70
2018-09-28T03:06:09.996Z,5.60
2018-09-28T03:08:36.683Z,5.80
2018-09-28T03:11:03.469Z,5.60
2018-09-28T03:13:30.290Z,5.60
2018-09-28T03:15:57.012Z,5.60
2018-09-28T03:18:24.407Z,5.50
2018-09-28T03:20:51.901Z,5.50
2018-09-28T03:23:19.391Z,5.40
2018-09-28T03:25:46.085Z,5.40
2018-09-28T03:28:12.823Z,5.40
2018-09-28T03:30:39.648Z,5.30
2018-09-28T03:33:06.401Z,5.30
2018-09-28T03:35:33.087Z,5.20
2018-09-28T03:37:59.814Z,5.20
2018-09-28T03:40:27.280Z,5.00
2018-09-28T03:42:54.001Z,5.10
2018-09-28T03:45:20.774Z,5.00
2018-09-28T03:47:47.584Z,5.00
2018-09-28T03:50:15.174Z,4.90
2018-09-28T03:52:41.917Z,4.80
2018-09-28T03:55:08.803Z,4.70
2018-09-28T03:57:35.628Z,4.70
2018-09-28T04:00:02.674Z,4.60
2018-09-28T04:02:29.621Z,4.60
2018-09-28T04:04:56.332Z,4.60
2018-09-28T04:07:38.063Z,4.50
2018-09-28T04:10:04.812Z,4.60
2018-09-28T04:12:32.511Z,4.60
2018-09-28T04:14:59.326Z,4.50
2018-09-28T04:17:26.104Z,4.60
2018-09-28T04:19:53.064Z,4.60
2018-09-28T04:22:19.862Z,4.60
2018-09-28T04:24:47.264Z,4.60
2018-09-28T04:27:28.875Z,4.60
2018-09-28T04:29:55.606Z,4.70
2018-09-28T04:32:22.422Z,4.50
2018-09-28T04:34:49.213Z,4.60
2018-09-28T04:37:15.944Z,4.60
2018-09-28T04:39:42.704Z,4.60
2018-09-28T04:42:09.400Z,4.60
2018-09-28T04:44:36.146Z,4.60
2018-09-28T04:47:03.020Z,4.60
2018-09-28T04:49:29.701Z,4.60
2018-09-28T04:51:56.463Z,4.60
2018-09-28T04:54:23.240Z,4.50
2018-09-28T04:56:50.072Z,4.50
2018-09-28T04:59:16.904Z,4.50
2018-09-28T05:01:43.583Z,4.50
2018-09-28T05:04:11.192Z,4.60
2018-09-28T05:06:37.904Z,4.50
2018-09-28T05:09:05.397Z,4.60
2018-09-28T05:11:32.372Z,4.50
2018-09-28T05:13:59.074Z,4.60
2018-09-28T05:16:25.801Z,4.70
2018-09-28T05:18:52.523Z,4.70
2018-09-28T05:21:19.978Z,4.90
2018-09-28T05:23:46.710Z,4.90
2018-09-28T05:26:14.195Z,5.10
2018-09-28T05:28:40.864Z,5.00
2018-09-28T05:31:07.585Z,5.00
2018-09-28T05:33:34.332Z,5.10
2018-09-28T05:36:01.068Z,5.20
2018-09-28T05:38:27.725Z,5.30
2018-09-28T05:40:54.442Z,5.40
2018-09-28T05:43:21.240Z,5.50
2018-09-28T05:45:47.927Z,5.50
2018-09-28T05:48:14.653Z,5.50
2018-09-28T05:50:41.376Z,5.50
2018-09-28T05:53:08.316Z,5.50
2018-09-28T05:55:35.770Z,5.70
2018-09-28T05:58:02.607Z,5.70
2018-09-28T06:03:25.792Z,6.00
2018-09-28T06:05:53.249Z,5.90
2018-09-28T06:08:20.669Z,6.00
2018-09-28T06:10:47.420Z,5.90
2018-09-28T06:13:14.159Z,5.90
2018-09-28T06:15:40.839Z,5.90
2018-09-28T06:18:07.526Z,5.80
2018-09-28T06:20:34.356Z,5.80
2018-09-28T06:23:01.023Z,5.80
2018-09-28T06:25:27.712Z,5.80
2018-09-28T06:27:54.376Z,5.80
2018-09-28T06:30:21.039Z,5.90
2018-09-28T06:32:47.724Z,6.10
2018-09-28T06:35:14.418Z,6.20
2018-09-28T06:37:41.101Z,6.20
2018-09-28T06:40:07.994Z,6.10
2018-09-28T06:42:34.680Z,6.10
2018-09-28T06:45:01.385Z,6.40
2018-09-28T06:47:28.082Z,6.50
2018-09-28T06:49:54.801Z,6.70
2018-09-28T06:52:21.682Z,7.00
2018-09-28T06:54:48.368Z,7.20
2018-09-28T06:57:15.127Z,7.30
2018-09-28T06:59:41.904Z,7.40
2018-09-28T07:02:08.631Z,7.70
2018-09-28T07:04:35.300Z,7.90
2018-09-28T07:07:02.178Z,8.60
2018-09-28T07:09:28.905Z,9.00
2018-09-28T07:11:55.726Z,8.70
2018-09-28T07:14:23.322Z,9.30
2018-09-28T07:16:50.113Z,9.20
2018-09-28T07:19:16.842Z,9.20
2018-09-28T07:21:50.381Z,9.10
2018-09-28T07:24:18.005Z,9.50
2018-09-28T07:26:44.624Z,9.50
2018-09-28T07:29:11.317Z,9.70
2018-09-28T07:31:38.760Z,9.30
2018-09-28T07:34:05.508Z,9.30
2018-09-28T07:36:32.495Z,9.30
2018-09-28T07:38:59.793Z,9.80
2018-09-28T07:41:26.526Z,9.80
2018-09-28T07:43:53.274Z,9.80
2018-09-28T07:46:19.973Z,10.30
2018-09-28T07:48:46.630Z,10.40
2018-09-28T07:51:13.337Z,10.40
2018-09-28T07:53:40.030Z,10.70
2018-09-28T07:56:06.852Z,10.60
2018-09-28T07:58:33.589Z,10.30
2018-09-28T08:01:00.475Z,9.80
2018-09-28T08:03:27.991Z,9.90
2018-09-28T08:05:54.793Z,9.90
2018-09-28T08:08:22.245Z,10.10
2018-09-28T08:10:48.987Z,10.10
2018-09-28T08:13:16.463Z,10.00
2018-09-28T08:15:43.336Z,10.00
2018-09-28T08:18:10.051Z,10.00
2018-09-28T08:20:36.826Z,10.00
2018-09-28T08:23:03.686Z,10.20
2018-09-28T08:25:30.381Z,10.30
2018-09-28T08:27:57.148Z,10.50
2018-09-28T08:30:24.044Z,10.40
2018-09-28T08:32:50.703Z,10.30
2018-09-28T08:35:17.362Z,10.40
2018-09-28T08:37:44.085Z,10.20
2018-09-28T08:40:10.761Z,10.10
2018-09-28T08:42:37.509Z,10.30
2018-09-28T08:45:05.207Z,10.50
2018-09-28T08:47:31.946Z,10.50
2018-09-28T08:52:56.187Z,10.90
2018-09-28T08:55:22.927Z,10.70
2018-09-28T08:57:49.622Z,10.80
2018-09-28T09:00:17.042Z,10.90
2018-09-28T09:02:43.820Z,10.80
2018-09-28T09:05:10.626Z,11.00
2018-09-28T09:07:37.473Z,11.20
2018-09-28T09:10:04.229Z,10.90
2018-09-28T09:12:31.744Z,10.60
2018-09-28T09:14:58.473Z,10.60
2018-09-28T09:17:25.114Z,10.40
2018-09-28T09:19:51.953Z,10.60
2018-09-28T09:22:18.769Z,10.80
2018-09-28T09:24:45.535Z,10.70
2018-09-28T09:27:12.326Z,10.70
2018-09-28T09:29:39.122Z,10.60
2018-09-28T09:32:05.922Z,10.70
2018-09-28T09:34:32.600Z,10.40
2018-09-28T09:36:59.341Z,10.40
2018-09-28T09:39:26.834Z,10.50
2018-09-28T09:41:53.555Z,10.50
2018-09-28T09:44:20.399Z,10.60
2018-09-28T09:46:47.080Z,10.50
2018-09-28T09:49:14.589Z,10.80
2018-09-28T09:51:56.207Z,10.80
2018-09-28T09:54:22.970Z,10.90
2018-09-28T09:56:50.532Z,11.40
2018-09-28T09:59:17.980Z,11.40
2018-09-28T10:01:45.496Z,11.50
2018-09-28T10:04:12.200Z,11.50
2018-09-28T10:06:38.964Z,11.30
2018-09-28T10:09:05.685Z,11.30
2018-09-28T10:11:32.389Z,11.60
2018-09-28T10:13:59.158Z,11.70
2018-09-28T10:16:25.985Z,11.80
2018-09-28T10:18:52.718Z,11.80
2018-09-28T10:21:20.172Z,11.30
2018-09-28T10:23:47.776Z,11.20
2018-09-28T10:26:14.467Z,11.10
2018-09-28T10:28:41.284Z,11.40
2018-09-28T10:31:08.049Z,11.70
2018-09-28T10:33:34.758Z,11.50
2018-09-28T10:36:01.414Z,11.50
2018-09-28T10:38:28.304Z,11.40
2018-09-28T10:40:55.123Z,11.30
2018-09-28T10:43:21.761Z,11.20
2018-09-28T10:45:48.497Z,11.20
2018-09-28T10:48:16.278Z,11.10
2018-09-28T10:50:42.951Z,11.10
2018-09-28T10:53:09.654Z,11.10
2018-09-28T10:55:36.506Z,11.20
2018-09-28T10:58:03.996Z,11.10
2018-09-28T11:00:30.691Z,11.10
2018-09-28T11:02:57.654Z,11.40
2018-09-28T11:05:24.502Z,11.40
2018-09-28T11:07:51.221Z,11.40
2018-09-28T11:10:18.796Z,11.20
2018-09-28T11:12:46.217Z,11.10
2018-09-28T11:15:12.987Z,11.10
2018-09-28T11:17:39.685Z,11.00
2018-09-28T11:20:06.477Z,10.90
2018-09-28T11:22:33.937Z,10.90
2018-09-28T11:25:01.212Z,10.90
2018-09-28T11:27:28.892Z,10.90
2018-09-28T11:29:55.944Z,10.80
2018-09-28T11:32:22.794Z,10.90
2018-09-28T11:34:49.454Z,11.00
2018-09-28T11:37:16.908Z,11.30
2018-09-28T11:39:43.789Z,11.30
2018-09-28T11:42:10.588Z,11.30
2018-09-28T11:44:37.273Z,11.40
2018-09-28T11:47:04.090Z,11.20
2018-09-28T11:49:31.499Z,11.50
2018-09-28T11:51:58.256Z,11.50
2018-09-28T11:54:25.708Z,11.90
2018-09-28T11:56:52.402Z,11.90
2018-09-28T11:59:19.132Z,11.80
2018-09-28T12:01:46.614Z,12.10
2018-09-28T12:04:13.340Z,12.00
2018-09-28T12:06:40.166Z,12.30
2018-09-28T12:09:07.019Z,12.10
2018-09-28T12:11:34.519Z,12.20
2018-09-28T12:14:01.539Z,12.20
2018-09-28T12:16:28.246Z,11.90
2018-09-28T12:18:54.909Z,11.90
2018-09-28T12:21:21.673Z,12.10
2018-09-28T12:23:48.416Z,12.40
2018-09-28T12:26:15.097Z,12.50
2018-09-28T12:28:41.843Z,12.30
2018-09-28T12:31:09.329Z,11.70
2018-09-28T12:33:36.213Z,11.70
2018-09-28T12:36:02.926Z,10.60
2018-09-28T12:38:29.637Z,10.10
2018-09-28T12:40:57.133Z,9.40
2018-09-28T12:43:23.968Z,9.40
2018-09-28T12:45:50.688Z,9.20
2018-09-28T12:48:17.385Z,8.90
2018-09-28T12:50:44.873Z,8.50
2018-09-28T12:53:11.609Z,8.40
2018-09-28T12:55:38.279Z,8.30
2018-09-28T12:58:05.126Z,8.20
2018-09-28T13:00:31.916Z,8.10
2018-09-28T13:02:58.663Z,8.00
2018-09-28T13:05:25.633Z,7.90
2018-09-28T13:07:52.380Z,7.90
2018-09-28T13:10:19.038Z,7.90
2018-09-28T13:12:45.888Z,8.00
2018-09-28T13:15:12.842Z,8.00
2018-09-28T13:17:39.436Z,8.00
2018-09-28T13:20:06.316Z,8.00
2018-09-28T13:22:33.075Z,8.00
2018-09-28T13:24:59.844Z,7.80
2018-09-28T13:27:26.546Z,7.80
2018-09-28T13:29:53.223Z,7.80
2018-09-28T13:32:20.210Z,7.90
2018-09-28T13:34:46.823Z,7.80
2018-09-28T13:37:13.587Z,7.90
2018-09-28T13:39:40.489Z,7.90
2018-09-28T13:42:07.990Z,8.30
2018-09-28T13:44:35.496Z,8.70
2018-09-28T13:47:02.374Z,8.70
2018-09-28T13:49:29.198Z,9.10
2018-09-28T13:51:55.987Z,9.10
2018-09-28T13:54:22.905Z,8.90
2018-09-28T13:56:49.739Z,9.40
2018-09-28T13:59:16.834Z,9.60
2018-09-28T14:01:43.549Z,9.60
2018-09-28T14:04:10.413Z,9.60
2018-09-28T14:06:37.963Z,9.70
2018-09-28T14:09:04.741Z,9.60
2018-09-28T14:11:31.512Z,9.60
2018-09-28T14:13:58.652Z,9.40
2018-09-28T14:16:25.465Z,9.20
2018-09-28T14:18:53.093Z,8.90
2018-09-28T14:21:20.128Z,8.90
2018-09-28T14:23:46.888Z,8.80
2018-09-28T14:26:13.632Z,8.80
2018-09-28T14:28:40.515Z,8.80
2018-09-28T14:31:07.408Z,8.70
2018-09-28T14:33:34.373Z,8.80
2018-09-28T14:36:01.160Z,8.80
2018-09-28T14:38:28.312Z,8.70
2018-09-28T14:40:56.167Z,8.90
2018-09-28T14:43:23.070Z,8.80
2018-09-28T14:45:50.554Z,9.00
2018-09-28T14:48:18.176Z,9.20
2018-09-28T14:50:44.884Z,9.20
2018-09-28T14:53:11.649Z,9.30
2018-09-28T14:55:38.347Z,9.40
2018-09-28T14:58:05.607Z,9.20
2018-09-28T15:00:32.386Z,9.20
2018-09-28T15:02:59.113Z,9.00
2018-09-28T15:05:26.041Z,8.90
2018-09-28T15:07:52.801Z,8.80
2018-09-28T15:10:19.521Z,8.60
2018-09-28T15:12:46.412Z,8.60
2018-09-28T15:15:13.333Z,8.30
2018-09-28T15:17:40.238Z,8.20
2018-09-28T15:20:07.033Z,8.20
2018-09-28T15:22:34.461Z,8.00
2018-09-28T15:25:01.265Z,7.80
2018-09-28T15:27:28.095Z,7.90
2018-09-28T15:29:55.042Z,7.90
2018-09-28T15:32:21.707Z,7.90
2018-09-28T15:34:49.133Z,7.70
2018-09-28T15:37:16.144Z,7.70
2018-09-28T15:39:43.073Z,7.60
2018-09-28T15:42:09.752Z,7.60
2018-09-28T15:44:36.797Z,7.50
2018-09-28T15:47:03.601Z,7.40
2018-09-28T15:49:30.345Z,7.20
2018-09-28T15:51:57.552Z,7.00
2018-09-28T15:54:24.287Z,6.70
2018-09-28T15:56:51.170Z,6.90
2018-09-28T15:59:18.654Z,6.40
2018-09-28T16:04:43.054Z,6.40
2018-09-28T16:07:09.849Z,6.20
2018-09-28T16:09:37.085Z,6.10
2018-09-28T16:12:03.986Z,6.00
2018-09-28T16:14:31.008Z,5.90
2018-09-28T16:16:58.192Z,5.80
2018-09-28T16:19:25.420Z,5.70
2018-09-28T16:21:52.299Z,5.60
2018-09-28T16:24:18.988Z,5.50
2018-09-28T16:26:47.071Z,5.30
2018-09-28T16:29:14.229Z,5.20
2018-09-28T16:31:40.930Z,5.10
2018-09-28T16:34:07.616Z,5.10
2018-09-28T16:36:34.269Z,5.00
2018-09-28T16:39:01.459Z,5.00
2018-09-28T16:41:28.975Z,4.70
2018-09-28T16:43:55.683Z,4.80
2018-09-28T16:46:24.461Z,4.60
2018-09-28T16:48:51.189Z,4.60
2018-09-28T16:51:18.600Z,4.40
2018-09-28T16:53:45.340Z,4.40
2018-09-28T16:56:12.167Z,4.30
2018-09-28T16:58:39.678Z,4.20
2018-09-28T17:01:16.362Z,4.10
2018-09-28T17:03:43.500Z,4.10
2018-09-28T17:06:10.302Z,4.00
2018-09-28T17:08:37.165Z,4.00
2018-09-28T17:11:03.957Z,3.90
2018-09-28T17:13:31.758Z,3.80
2018-09-28T17:15:58.501Z,3.90
2018-09-28T17:18:25.185Z,3.80
2018-09-28T17:20:52.017Z,3.70
2018-09-28T17:23:18.720Z,3.60
2018-09-28T17:25:45.456Z,3.50
2018-09-28T17:28:12.222Z,3.50
2018-09-28T17:30:38.955Z,3.40
2018-09-28T17:33:05.708Z,3.40
2018-09-28T17:35:32.468Z,3.40
2018-09-28T17:37:59.158Z,3.30
2018-09-28T17:40:26.276Z,3.30
2018-09-28T17:42:53.044Z,3.20
2018-09-28T17:45:19.810Z,3.10
2018-09-28T17:47:46.516Z,3.10
2018-09-28T17:50:13.238Z,3.00
2018-09-28T17:52:40.664Z,2.90
2018-09-28T17:55:07.545Z,2.80
2018-09-28T17:57:35.050Z,2.80
2018-09-28T18:00:01.843Z,2.80
2018-09-28T18:02:29.294Z,2.80
2018-09-28T18:04:56.718Z,2.70
2018-09-28T18:07:23.386Z,2.70
2018-09-28T18:09:50.838Z,2.60
2018-09-28T18:12:18.361Z,2.60
2018-09-28T18:14:45.272Z,2.50
2018-09-28T18:17:11.991Z,2.50
2018-09-28T18:19:39.562Z,2.40
2018-09-28T18:22:07.038Z,2.40
2018-09-28T18:24:34.030Z,2.30
2018-09-28T18:27:02.676Z,2.40
2018-09-28T18:29:29.591Z,2.30
2018-09-28T18:31:56.291Z,2.30
2018-09-28T18:34:23.191Z,2.20
2018-09-28T18:36:49.906Z,2.20
2018-09-28T18:39:17.304Z,2.20
2018-09-28T18:41:44.029Z,2.10
2018-09-28T18:44:10.754Z,2.20
2018-09-28T18:46:38.190Z,2.20
2018-09-28T18:49:05.732Z,2.10
2018-09-28T18:51:32.664Z,2.10
2018-09-28T18:53:59.387Z,2.20
2018-09-28T18:56:26.248Z,2.00
2018-09-28T18:58:53.047Z,2.10
2018-09-28T19:01:19.624Z,2.00
2018-09-28T19:03:46.393Z,1.90
2018-09-28T19:06:13.147Z,2.00
2018-09-28T19:08:39.834Z,2.00
2018-09-28T19:11:06.735Z,1.90
2018-09-28T19:13:33.802Z,1.80
2018-09-28T19:16:00.965Z,1.80
2018-09-28T19:18:28.059Z,1.80
2018-09-28T19:20:55.024Z,1.80
2018-09-28T19:23:22.501Z,1.70
2018-09-28T19:25:49.345Z,1.70
2018-09-28T19:28:16.104Z,1.70
2018-09-28T19:30:43.232Z,1.60
2018-09-28T19:33:09.997Z,1.60
2018-09-28T19:35:36.658Z,1.50
2018-09-28T19:38:03.568Z,1.60
2018-09-28T19:40:30.313Z,1.40
2018-09-28T19:42:57.010Z,1.40
2018-09-28T19:45:23.922Z,1.40
2018-09-28T19:47:50.691Z,1.40
2018-09-28T19:50:17.922Z,1.40
2018-09-28T19:52:45.769Z,1.30
2018-09-28T19:55:12.436Z,1.30
2018-09-28T19:57:39.153Z,1.30
2018-09-28T20:00:06.236Z,1.40
2018-09-28T20:02:33.187Z,1.30
2018-09-28T20:05:00.635Z,1.40
2018-09-28T20:07:27.538Z,1.30
2018-09-28T20:09:54.264Z,1.30
2018-09-28T20:12:21.031Z,1.40
2018-09-28T20:14:49.292Z,1.30
2018-09-28T20:17:16.259Z,1.20
2018-09-28T20:19:43.048Z,1.30
2018-09-28T20:22:09.955Z,1.30
2018-09-28T20:24:36.668Z,1.30
2018-09-28T20:27:03.394Z,1.30
2018-09-28T20:29:30.275Z,1.40
2018-09-28T20:31:56.982Z,1.30
2018-09-28T20:34:23.907Z,1.30
2018-09-28T20:36:50.668Z,1.20
2018-09-28T20:39:17.449Z,1.30
2018-09-28T20:41:44.367Z,1.30
2018-09-28T20:44:11.095Z,1.30
2018-09-28T20:46:37.835Z,1.30
2018-09-28T20:49:05.069Z,1.30
2018-09-28T20:51:32.542Z,1.30
2018-09-28T20:53:59.309Z,1.30
2018-09-28T20:56:29.326Z,1.20
2018-09-28T20:58:56.038Z,1.20
2018-09-28T21:01:22.776Z,1.20
2018-09-28T21:03:49.457Z,1.10
2018-09-28T21:06:16.155Z,1.20
2018-09-28T21:08:42.939Z,1.20
2018-09-28T21:11:09.652Z,1.20
2018-09-28T21:13:36.820Z,1.30
2018-09-28T21:16:04.931Z,1.30
2018-09-28T21:18:32.493Z,1.20
2018-09-28T21:20:59.691Z,1.20
2018-09-28T21:23:27.106Z,1.20
2018-09-28T21:25:54.105Z,1.20
2018-09-28T21:28:21.081Z,1.20
2018-09-28T21:30:48.637Z,1.10
2018-09-28T21:33:16.083Z,1.10
2018-09-28T21:35:42.806Z,1.10
2018-09-28T21:38:09.553Z,1.10
2018-09-28T21:40:36.309Z,1.10
2018-09-28T21:43:03.123Z,1.00
2018-09-28T21:45:30.934Z,1.00
2018-09-28T21:47:58.357Z,0.90
2018-09-28T21:50:25.086Z,0.90
2018-09-28T21:52:51.978Z,0.80
2018-09-28T21:55:18.950Z,0.80
2018-09-28T21:57:45.705Z,0.80
2018-09-28T22:00:12.467Z,0.80
2018-09-28T22:02:39.177Z,0.80
2018-09-28T22:05:06.114Z,0.80
2018-09-28T22:07:32.847Z,0.70
2018-09-28T22:09:59.538Z,0.70
2018-09-28T22:12:26.289Z,0.70
2018-09-28T22:14:53.008Z,0.70
2018-09-28T22:17:20.522Z,0.80
2018-09-28T22:19:47.231Z,0.70
2018-09-28T22:22:14.841Z,0.80
2018-09-28T22:24:42.272Z,0.80
2018-09-28T22:27:09.789Z,0.80
2018-09-28T22:29:36.527Z,0.80
2018-09-28T22:32:03.344Z,0.80
2018-09-28T22:34:30.032Z,0.90
2018-09-28T22:36:56.787Z,0.90
2018-09-28T22:39:24.235Z,0.90
2018-09-28T22:41:51.007Z,0.90
2018-09-28T22:44:18.477Z,0.90
2018-09-28T22:46:45.173Z,0.80
2018-09-28T22:49:11.897Z,0.90
2018-09-28T22:51:39.426Z,0.90
2018-09-28T22:54:06.242Z,0.90
2018-09-28T22:56:35.983Z,0.90
2018-09-28T22:59:17.601Z,0.90
2018-09-28T23:01:44.372Z,0.90
2018-09-28T23:04:11.161Z,0.90
2018-09-28T23:06:37.882Z,0.80
2018-09-28T23:09:05.114Z,0.90
2018-09-28T23:11:31.799Z,0.90
2018-09-28T23:13:58.558Z,0.80
2018-09-28T23:16:25.333Z,0.80
2018-09-28T23:18:52.063Z,0.80
2018-09-28T23:21:18.878Z,0.70
2018-09-28T23:23:45.632Z,0.60
2018-09-28T23:26:13.104Z,0.70
2018-09-28T23:28:40.505Z,0.50
2018-09-28T23:31:07.264Z,0.50
2018-09-28T23:33:34.017Z,0.40
2018-09-28T23:36:00.758Z,0.50
2018-09-28T23:38:27.515Z,0.40
2018-09-28T23:40:54.973Z,0.40
2018-09-28T23:43:22.391Z,0.40
2018-09-28T23:45:49.240Z,0.40
2018-09-28T23:48:15.978Z,0.40
2018-09-28T23:50:42.742Z,0.40
2018-09-28T23:53:09.547Z,0.40
2018-09-28T23:55:36.418Z,0.40
2018-09-28T23:58:03.959Z,0.40
